Quinhagak Information

FAA: AQH - ICAO: PAQH

Quinhagak (Airport) Location

State Alaska
County Bethel
City Quinhagak
Quinhagak (Airport) is 2 miles east of Quinhagak, AK.
Latitude 59-45-18.3400N
Longitude 161-50-43.3200W
Elevation 41ft

Quinhagak METARs

METAR PAQH 251556Z AUTO 06003KT 10SM OVC065 M16/M17 A3015 RMK AO2 SLP210 T11561172 FZRANO
Altimeter 30.15"
Temperature -15.6°C (3.9°F)
Wind 60° at 3KT
Clouds overcast at 6,500ft
Visibility 10.0mi
Time observed: 2022-01-25T15:56:00Z

Quinhagak (Airport) Details

Status Operational
Activation June 1963
Ownership Public
Usage Public
Chart KODIAK
ATC on-site No
Beacon schedule N/A
Beacon color clear green

Quinhagak (Airport) Contacts

Owner NATIVE VILLAGE OF KWINHAGAK
Owner address PO BOX 149, QUINHAGAK, AK 99655
Owner phone 907-556-8165
Manager BARRY YOUNGBERG
Manager address P.O. BOX 1108, PETERSBURG, AK 99811
Manager phone 907-772-4624

Quinhagak Radio Frequencies

Quinhagak (Airport) Radio Frequencies

UNICOM 122.8
Common traffic advisory frequency (CTAF) 122.8